Time;durP1;ratioP1;P1;durP2;ratioP2;P2;SDS_P1;SDS_P2;PMS_P1;PMS_P2;Temp;Humidity;BMP_temperature;BMP_pressure;BME280_temperature;BME280_humidity;BME280_pressure;Samples;Min_cycle;Max_cycle;Signal;HPM_P1;HPM_P2
2023/03/25 00:02:14;;;;;;;15.02;3.10;;;;;;;;;;5074384;28;20127;-75
2023/03/25 00:04:40;;;;;;;12.02;2.92;;;;;;;;;;5054198;28;20059;-75
2023/03/25 00:07:06;;;;;;;14.70;3.47;;;;;;;;;;5072935;28;20351;-75
2023/03/25 00:09:32;;;;;;;17.75;3.55;;;;;;;;;;5054853;28;20429;-74
2023/03/25 00:11:58;;;;;;;15.13;3.13;;;;;;;;;;5056204;28;20170;-75
2023/03/25 00:14:25;;;;;;;14.38;3.10;;;;;;;;;;5074418;28;20053;-75
2023/03/25 00:16:51;;;;;;;20.63;3.45;;;;;;;;;;5056763;28;20060;-75
2023/03/25 00:19:20;;;;;;;19.60;3.13;;;;;;;;;;5074203;28;20159;-75
2023/03/25 00:21:49;;;;;;;21.60;3.88;;;;;;;;;;5074267;28;20444;-74
2023/03/25 00:24:18;;;;;;;23.48;3.78;;;;;;;;;;5074075;28;20396;-75
2023/03/25 00:26:45;;;;;;;17.83;3.40;;;;;;;;;;5074392;28;20170;-74
2023/03/25 00:29:12;;;;;;;19.77;3.20;;;;;;;;;;5074005;28;20064;-74
2023/03/25 00:31:39;;;;;;;18.40;3.60;;;;;;;;;;5037587;28;20041;-75
2023/03/25 00:34:05;;;;;;;21.70;3.50;;;;;;;;;;5073807;28;20134;-75
2023/03/25 00:36:31;;;;;;;17.65;3.20;;;;;;;;;;5074336;28;20066;-75
2023/03/25 00:38:57;;;;;;;14.18;3.45;;;;;;;;;;5073697;28;20121;-75
2023/03/25 00:41:24;;;;;;;17.10;3.10;;;;;;;;;;5074156;28;20489;-75
2023/03/25 00:43:51;;;;;;;14.35;3.28;;;;;;;;;;5055554;28;20533;-75
2023/03/25 00:46:17;;;;;;;14.75;3.10;;;;;;;;;;5073881;28;20044;-75
2023/03/25 00:48:44;;;;;;;19.92;3.47;;;;;;;;;;5073047;28;20055;-75
2023/03/25 00:51:12;;;;;;;14.57;3.00;;;;;;;;;;5073385;28;20087;-75
2023/03/25 00:53:39;;;;;;;16.33;3.78;;;;;;;;;;5073648;28;20065;-74
2023/03/25 00:56:06;;;;;;;17.77;3.60;;;;;;;;;;5055602;28;20141;-75
2023/03/25 00:58:32;;;;;;;20.70;3.88;;;;;;;;;;5055582;28;20165;-75
2023/03/25 01:00:58;;;;;;;15.63;3.17;;;;;;;;;;5073503;28;20037;-74
2023/03/25 01:03:25;;;;;;;19.05;3.53;;;;;;;;;;5073343;28;20400;-75
2023/03/25 01:05:54;;;;;;;20.52;4.00;;;;;;;;;;5073384;28;20381;-75
2023/03/25 01:08:28;;;;;;;18.10;3.60;;;;;;;;;;5073519;28;20098;-75
2023/03/25 01:10:54;;;;;;;17.45;3.40;;;;;;;;;;5073120;28;20072;-75
2023/03/25 01:13:21;;;;;;;18.58;3.80;;;;;;;;;;5055045;28;20063;-75
2023/03/25 01:15:47;;;;;;;22.35;4.50;;;;;;;;;;5073036;28;20055;-75
2023/03/25 01:18:14;;;;;;;20.90;4.10;;;;;;;;;;5055080;28;20076;-74
2023/03/25 01:20:40;;;;;;;22.15;3.70;;;;;;;;;;5055130;28;20056;-75
2023/03/25 01:23:08;;;;;;;21.05;4.03;;;;;;;;;;5055164;28;20040;-72
2023/03/25 01:25:34;;;;;;;20.98;4.70;;;;;;;;;;5055129;28;20056;-73
2023/03/25 01:28:00;;;;;;;19.20;3.72;;;;;;;;;;5055026;28;20488;-72
2023/03/25 01:30:26;;;;;;;19.42;4.13;;;;;;;;;;5072799;28;20091;-75
2023/03/25 01:32:52;;;;;;;22.15;3.80;;;;;;;;;;5072697;28;20098;-75
2023/03/25 01:35:19;;;;;;;22.65;4.03;;;;;;;;;;5073020;28;20448;-75
2023/03/25 01:37:45;;;;;;;22.30;4.32;;;;;;;;;;5031279;28;20128;-75
2023/03/25 01:40:16;;;;;;;24.50;4.43;;;;;;;;;;5034892;28;20151;-74
2023/03/25 01:42:43;;;;;;;22.35;4.25;;;;;;;;;;5034607;28;20539;-75
2023/03/25 01:45:38;;;;;;;18.38;3.85;;;;;;;;;;5050733;28;20574;-74
2023/03/25 01:48:14;;;;;;;22.13;4.20;;;;;;;;;;5020820;28;20270;-75
2023/03/25 01:50:42;;;;;;;25.27;4.13;;;;;;;;;;5052623;28;20048;-75
2023/03/25 01:53:09;;;;;;;21.02;4.32;;;;;;;;;;5052489;28;20462;-75
2023/03/25 01:55:37;;;;;;;26.98;4.50;;;;;;;;;;5052541;28;20037;-74
2023/03/25 01:58:06;;;;;;;17.90;3.80;;;;;;;;;;5034562;28;20048;-75
2023/03/25 02:00:32;;;;;;;28.90;4.45;;;;;;;;;;5051308;28;20428;-74
2023/03/25 02:02:59;;;;;;;22.77;4.30;;;;;;;;;;5051170;28;20048;-75
2023/03/25 02:05:29;;;;;;;20.33;4.07;;;;;;;;;;5052296;28;20387;-74
2023/03/25 02:07:56;;;;;;;31.45;5.20;;;;;;;;;;5034615;28;20422;-75
2023/03/25 02:10:23;;;;;;;25.45;4.43;;;;;;;;;;5051961;28;20049;-75
2023/03/25 02:12:49;;;;;;;23.35;4.32;;;;;;;;;;5032717;28;20057;-74
2023/03/25 02:15:17;;;;;;;25.25;4.80;;;;;;;;;;5034297;28;20052;-74
2023/03/25 02:17:57;;;;;;;21.67;4.35;;;;;;;;;;5034215;28;20056;-75
2023/03/25 02:20:26;;;;;;;28.83;4.95;;;;;;;;;;5052144;28;20394;-74
2023/03/25 02:23:01;;;;;;;20.95;4.28;;;;;;;;;;5034092;28;20048;-75
2023/03/25 02:25:34;;;;;;;21.80;4.65;;;;;;;;;;5034134;28;20041;-74
2023/03/25 02:28:00;;;;;;;26.45;4.95;;;;;;;;;;5034265;28;20053;-74
2023/03/25 02:30:42;;;;;;;26.05;5.20;;;;;;;;;;5017087;28;20090;-74
2023/03/25 02:33:24;;;;;;;27.77;5.07;;;;;;;;;;5032702;28;20101;-75
2023/03/25 02:35:51;;;;;;;24.33;4.88;;;;;;;;;;5051968;28;20045;-74
2023/03/25 02:38:23;;;;;;;27.58;5.28;;;;;;;;;;5062918;28;20090;-74
2023/03/25 02:41:09;;;;;;;21.63;4.72;;;;;;;;;;5054174;28;20113;-75
2023/03/25 02:43:38;;;;;;;29.75;5.63;;;;;;;;;;5054007;28;20049;-74
2023/03/25 02:46:09;;;;;;;26.88;4.93;;;;;;;;;;5054093;28;20101;-74
2023/03/25 02:48:39;;;;;;;24.80;4.32;;;;;;;;;;5071593;28;20560;-75
2023/03/25 02:51:09;;;;;;;28.45;5.63;;;;;;;;;;5053986;28;20397;-74
2023/03/25 02:53:36;;;;;;;24.98;4.55;;;;;;;;;;5053718;28;20105;-74
2023/03/25 02:56:08;;;;;;;29.60;5.15;;;;;;;;;;5054055;28;20052;-74
2023/03/25 02:58:34;;;;;;;27.48;4.72;;;;;;;;;;5071954;28;20078;-74
2023/03/25 03:01:01;;;;;;;31.23;5.45;;;;;;;;;;5070134;28;20045;-74
2023/03/25 03:03:27;;;;;;;27.92;4.97;;;;;;;;;;5069665;28;20404;-75
2023/03/25 03:05:56;;;;;;;27.27;4.95;;;;;;;;;;5052631;28;20044;-75
2023/03/25 03:08:40;;;;;;;28.48;4.60;;;;;;;;;;5071781;28;20059;-74
2023/03/25 03:11:06;;;;;;;26.80;4.80;;;;;;;;;;5053354;28;20190;-74
2023/03/25 03:13:48;;;;;;;21.55;4.65;;;;;;;;;;5040720;28;20064;-72
2023/03/25 03:16:17;;;;;;;25.17;4.43;;;;;;;;;;5075458;28;20056;-73
2023/03/25 03:18:52;;;;;;;23.85;4.55;;;;;;;;;;5075460;28;20358;-75
2023/03/25 03:21:25;;;;;;;24.30;4.63;;;;;;;;;;5057542;28;20048;-74
2023/03/25 03:24:12;;;;;;;26.48;4.18;;;;;;;;;;5075151;28;20412;-74
2023/03/25 03:26:52;;;;;;;22.85;4.45;;;;;;;;;;5057268;28;20098;-75
2023/03/25 03:29:38;;;;;;;22.00;4.07;;;;;;;;;;5075101;28;20443;-74
2023/03/25 03:32:08;;;;;;;29.30;4.97;;;;;;;;;;5057462;28;20060;-74
2023/03/25 03:34:43;;;;;;;27.13;5.32;;;;;;;;;;5075039;28;20067;-75
2023/03/25 03:37:11;;;;;;;27.80;4.72;;;;;;;;;;5075132;28;20044;-75
2023/03/25 03:39:38;;;;;;;23.63;4.75;;;;;;;;;;5056664;28;20044;-74
2023/03/25 03:42:13;;;;;;;22.10;4.05;;;;;;;;;;5075024;28;20069;-74
2023/03/25 03:44:40;;;;;;;26.63;3.72;;;;;;;;;;5056712;28;20048;-74
2023/03/25 03:47:11;;;;;;;19.42;3.85;;;;;;;;;;5040417;28;20055;-75
2023/03/25 03:49:49;;;;;;;23.13;4.28;;;;;;;;;;5054133;28;20045;-75
2023/03/25 03:52:18;;;;;;;24.42;4.57;;;;;;;;;;5055415;28;20037;-75
2023/03/25 03:54:56;;;;;;;24.70;4.50;;;;;;;;;;5056451;28;20044;-74
2023/03/25 03:57:31;;;;;;;20.42;5.03;;;;;;;;;;5074939;28;20041;-75
2023/03/25 04:00:02;;;;;;;17.88;3.80;;;;;;;;;;5074553;28;20411;-72
2023/03/25 04:02:37;;;;;;;25.73;4.13;;;;;;;;;;5056649;28;20052;-72
2023/03/25 04:05:03;;;;;;;21.70;4.53;;;;;;;;;;5074302;28;20110;-72
2023/03/25 04:07:40;;;;;;;22.35;4.22;;;;;;;;;;5073587;28;20044;-73
2023/03/25 04:10:16;;;;;;;24.25;4.20;;;;;;;;;;5074469;28;20040;-74
2023/03/25 04:12:42;;;;;;;;;;;;;;;;;;5056814;28;20157;-75
2023/03/25 04:15:08;;;;;;;24.77;5.32;;;;;;;;;;5056256;28;19923;-74
2023/03/25 04:17:34;;;;;;;27.90;4.85;;;;;;;;;;5074558;28;20447;-75
2023/03/25 04:20:05;;;;;;;22.48;4.50;;;;;;;;;;5056243;28;20052;-75
2023/03/25 04:22:31;;;;;;;28.63;5.10;;;;;;;;;;5074206;28;20477;-74
2023/03/25 04:24:59;;;;;;;28.17;5.13;;;;;;;;;;5073218;28;20048;-72
2023/03/25 04:27:28;;;;;;;24.83;5.13;;;;;;;;;;5074157;28;20040;-72
2023/03/25 04:29:56;;;;;;;26.35;4.72;;;;;;;;;;5056307;28;20110;-72
2023/03/25 04:32:22;;;;;;;23.30;4.85;;;;;;;;;;5074265;28;20106;-72
2023/03/25 04:34:48;;;;;;;22.73;4.53;;;;;;;;;;5073998;28;20087;-73
2023/03/25 04:37:14;;;;;;;30.25;4.57;;;;;;;;;;5070378;28;20068;-73
2023/03/25 04:39:40;;;;;;;27.00;4.85;;;;;;;;;;5052592;28;20049;-72
2023/03/25 04:42:07;;;;;;;24.92;4.40;;;;;;;;;;5036008;28;20044;-75
2023/03/25 04:44:37;;;;;;;24.27;5.18;;;;;;;;;;5052704;28;20201;-72
2023/03/25 04:47:04;;;;;;;22.50;4.97;;;;;;;;;;5053488;28;20049;-72
2023/03/25 04:49:31;;;;;;;25.58;4.80;;;;;;;;;;5053391;28;20501;-72
2023/03/25 04:51:58;;;;;;;27.70;5.32;;;;;;;;;;5035943;28;20103;-73
2023/03/25 04:54:24;;;;;;;26.17;4.47;;;;;;;;;;5053487;28;20088;-72
2023/03/25 04:56:51;;;;;;;31.05;4.88;;;;;;;;;;5053568;28;20040;-72
2023/03/25 04:59:18;;;;;;;19.55;4.25;;;;;;;;;;5053574;28;20055;-73
2023/03/25 05:01:44;;;;;;;24.17;5.13;;;;;;;;;;5035587;28;20486;-73
2023/03/25 05:04:12;;;;;;;20.85;4.13;;;;;;;;;;5053188;28;20421;-73
2023/03/25 05:06:40;;;;;;;27.05;4.50;;;;;;;;;;5035645;28;20069;-75
2023/03/25 05:09:07;;;;;;;26.85;4.57;;;;;;;;;;5035244;28;20232;-75
2023/03/25 05:11:35;;;;;;;24.05;4.57;;;;;;;;;;5053210;28;20081;-75
2023/03/25 05:14:02;;;;;;;19.90;4.30;;;;;;;;;;5035095;28;20520;-73
2023/03/25 05:16:28;;;;;;;24.83;4.47;;;;;;;;;;5053371;28;20049;-72
2023/03/25 05:18:54;;;;;;;22.15;4.50;;;;;;;;;;5053108;28;20045;-76
2023/03/25 05:21:20;;;;;;;23.55;4.90;;;;;;;;;;5035317;28;20053;-73
2023/03/25 05:23:46;;;;;;;29.30;4.78;;;;;;;;;;5018570;28;20099;-73
2023/03/25 05:26:12;;;;;;;23.80;4.50;;;;;;;;;;5052743;28;20098;-73
2023/03/25 05:28:39;;;;;;;27.88;5.55;;;;;;;;;;5033384;28;20049;-74
2023/03/25 05:31:07;;;;;;;24.13;4.30;;;;;;;;;;5035229;28;20056;-74
2023/03/25 05:33:42;;;;;;;22.70;4.22;;;;;;;;;;5034944;28;20059;-73
2023/03/25 05:36:09;;;;;;;19.67;4.60;;;;;;;;;;5052685;28;20045;-74
2023/03/25 05:38:36;;;;;;;24.77;5.03;;;;;;;;;;5052667;28;20123;-74
2023/03/25 05:41:03;;;;;;;26.20;5.00;;;;;;;;;;5052609;28;20078;-73
2023/03/25 05:43:34;;;;;;;20.00;4.63;;;;;;;;;;5052854;28;20339;-73
2023/03/25 05:46:00;;;;;;;30.05;6.25;;;;;;;;;;5052819;28;20049;-73
2023/03/25 05:48:31;;;;;;;20.77;4.43;;;;;;;;;;5052744;28;20048;-73
2023/03/25 05:50:57;;;;;;;24.65;5.18;;;;;;;;;;5052603;28;20158;-74
2023/03/25 05:53:23;;;;;;;25.52;5.20;;;;;;;;;;5018361;28;20444;-74
2023/03/25 05:55:50;;;;;;;25.17;4.40;;;;;;;;;;5052343;28;20078;-74
2023/03/25 05:58:18;;;;;;;24.08;4.68;;;;;;;;;;5034628;28;20049;-74
2023/03/25 06:00:45;;;;;;;27.92;5.07;;;;;;;;;;5051613;28;20057;-74
2023/03/25 06:03:11;;;;;;;25.17;5.78;;;;;;;;;;5032336;28;20132;-74
2023/03/25 06:05:41;;;;;;;31.17;5.63;;;;;;;;;;5051829;28;20041;-73
2023/03/25 06:08:07;;;;;;;23.27;4.72;;;;;;;;;;5052213;28;20041;-73
2023/03/25 06:10:33;;;;;;;22.85;4.35;;;;;;;;;;5052174;28;20040;-74
2023/03/25 06:12:59;;;;;;;28.92;4.88;;;;;;;;;;5052398;28;20060;-73
2023/03/25 06:15:32;;;;;;;23.38;4.85;;;;;;;;;;5052328;28;20037;-74
2023/03/25 06:17:58;;;;;;;25.45;4.78;;;;;;;;;;5034396;28;20048;-73
2023/03/25 06:20:25;;;;;;;30.10;4.85;;;;;;;;;;5052069;28;20045;-73
2023/03/25 06:22:51;;;;;;;26.52;4.95;;;;;;;;;;5034382;28;20573;-74
2023/03/25 06:25:19;;;;;;;25.85;4.93;;;;;;;;;;5052185;28;20049;-73
2023/03/25 06:27:47;;;;;;;22.17;4.70;;;;;;;;;;5017950;28;20506;-73
2023/03/25 06:30:14;;;;;;;22.63;4.68;;;;;;;;;;5051943;28;20386;-74
2023/03/25 06:32:40;;;;;;;20.20;4.25;;;;;;;;;;5051870;28;20045;-74
2023/03/25 06:35:08;;;;;;;23.52;4.53;;;;;;;;;;5033372;28;20500;-73
2023/03/25 06:37:34;;;;;;;21.10;4.30;;;;;;;;;;5031343;28;20045;-74
2023/03/25 06:40:00;;;;;;;27.30;4.57;;;;;;;;;;5033992;28;20154;-73
2023/03/25 06:42:26;;;;;;;24.70;4.25;;;;;;;;;;5033821;28;20037;-74
2023/03/25 06:44:52;;;;;;;21.52;4.50;;;;;;;;;;5051597;28;20401;-73
2023/03/25 06:47:19;;;;;;;21.83;4.32;;;;;;;;;;5036248;28;20044;-74
2023/03/25 06:49:45;;;;;;;23.63;4.63;;;;;;;;;;5038054;28;20048;-74
2023/03/25 06:52:11;;;;;;;20.85;4.70;;;;;;;;;;5037827;28;20519;-74
2023/03/25 06:54:37;;;;;;;23.13;4.22;;;;;;;;;;5037665;28;20060;-74
2023/03/25 06:57:03;;;;;;;22.17;4.72;;;;;;;;;;5055999;28;20037;-74
2023/03/25 06:59:30;;;;;;;24.30;4.60;;;;;;;;;;5055803;28;20049;-74
2023/03/25 07:01:56;;;;;;;26.10;4.80;;;;;;;;;;5055605;28;20116;-74
2023/03/25 07:04:23;;;;;;;20.13;4.90;;;;;;;;;;5055303;28;20045;-74
2023/03/25 07:06:49;;;;;;;21.75;4.18;;;;;;;;;;5054003;28;20489;-74
2023/03/25 07:09:15;;;;;;;22.20;4.80;;;;;;;;;;5053925;28;20094;-74
2023/03/25 07:11:41;;;;;;;19.73;3.85;;;;;;;;;;5054219;28;20498;-74
2023/03/25 07:14:07;;;;;;;22.58;4.28;;;;;;;;;;5055134;28;20485;-73
2023/03/25 07:16:33;;;;;;;27.90;4.50;;;;;;;;;;5055648;28;20091;-74
2023/03/25 07:18:59;;;;;;;21.33;3.70;;;;;;;;;;5053991;28;20427;-74
2023/03/25 07:21:26;;;;;;;19.35;4.10;;;;;;;;;;5055241;28;20044;-74
2023/03/25 07:23:52;;;;;;;18.55;4.18;;;;;;;;;;5055013;28;20045;-74
2023/03/25 07:26:18;;;;;;;21.52;4.70;;;;;;;;;;5055395;28;20122;-73
2023/03/25 07:28:45;;;;;;;18.65;3.65;;;;;;;;;;5055252;28;20069;-74
2023/03/25 07:31:12;;;;;;;17.58;3.17;;;;;;;;;;5055083;28;20060;-74
2023/03/25 07:33:38;;;;;;;13.68;3.80;;;;;;;;;;5054941;28;20121;-74
2023/03/25 07:36:05;;;;;;;18.20;3.75;;;;;;;;;;5054957;28;20473;-74
2023/03/25 07:38:31;;;;;;;17.90;4.28;;;;;;;;;;5049620;28;20123;-73
2023/03/25 07:40:57;;;;;;;20.52;4.00;;;;;;;;;;5057072;28;20499;-74
2023/03/25 07:43:24;;;;;;;25.80;4.72;;;;;;;;;;5074945;28;20503;-74
2023/03/25 07:45:50;;;;;;;20.02;4.60;;;;;;;;;;5056779;28;20067;-73
2023/03/25 07:48:16;;;;;;;18.27;4.20;;;;;;;;;;5056821;28;20048;-73
2023/03/25 07:50:44;;;;;;;20.30;3.88;;;;;;;;;;5074719;28;20360;-74
2023/03/25 07:53:10;;;;;;;15.20;3.97;;;;;;;;;;5038416;28;20132;-74
2023/03/25 07:55:37;;;;;;;15.90;3.70;;;;;;;;;;5056618;28;20135;-74
2023/03/25 07:58:03;;;;;;;12.85;3.25;;;;;;;;;;5073657;28;20094;-74
2023/03/25 08:00:29;;;;;;;18.23;3.45;;;;;;;;;;5074486;28;20044;-74
2023/03/25 08:02:56;;;;;;;16.48;3.72;;;;;;;;;;5074474;28;20094;-74
2023/03/25 08:05:22;;;;;;;15.75;3.30;;;;;;;;;;5056367;28;20048;-74
2023/03/25 08:07:49;;;;;;;15.00;3.58;;;;;;;;;;5039703;28;20052;-74
2023/03/25 08:10:15;;;;;;;14.05;3.50;;;;;;;;;;5056474;28;20063;-74
2023/03/25 08:12:42;;;;;;;17.27;3.25;;;;;;;;;;5073640;28;20485;-73
2023/03/25 08:15:10;;;;;;;15.82;3.60;;;;;;;;;;5054859;28;20048;-73
2023/03/25 08:17:36;;;;;;;12.80;3.17;;;;;;;;;;5056513;28;20087;-74
2023/03/25 08:20:04;;;;;;;14.18;3.28;;;;;;;;;;5074287;28;20141;-73
2023/03/25 08:22:30;;;;;;;17.52;3.28;;;;;;;;;;5074148;28;20048;-73
2023/03/25 08:24:56;;;;;;;15.07;3.20;;;;;;;;;;5074163;28;20044;-73
2023/03/25 08:27:22;;;;;;;13.65;2.95;;;;;;;;;;5074239;28;20401;-73
2023/03/25 08:29:53;;;;;;;17.20;3.97;;;;;;;;;;5074116;28;20044;-74
2023/03/25 08:32:22;;;;;;;15.18;3.60;;;;;;;;;;5074116;28;20411;-73
2023/03/25 08:34:48;;;;;;;16.45;3.58;;;;;;;;;;5039344;28;20123;-74
2023/03/25 08:37:15;;;;;;;16.98;3.92;;;;;;;;;;5071229;28;20101;-73
2023/03/25 08:39:43;;;;;;;12.98;2.92;;;;;;;;;;5053804;28;20049;-76
2023/03/25 08:42:10;;;;;;;20.10;3.78;;;;;;;;;;5035892;28;20049;-74
2023/03/25 08:44:36;;;;;;;16.23;3.33;;;;;;;;;;5035483;28;20041;-74
2023/03/25 08:47:03;;;;;;;15.95;3.50;;;;;;;;;;5035584;28;20339;-74
2023/03/25 08:49:29;;;;;;;18.92;3.20;;;;;;;;;;5052823;28;20083;-74
2023/03/25 08:51:59;;;;;;;12.18;3.40;;;;;;;;;;5053572;28;20478;-74
2023/03/25 08:54:26;;;;;;;16.58;3.55;;;;;;;;;;5053545;28;20040;-73
2023/03/25 08:56:52;;;;;;;19.17;3.47;;;;;;;;;;5036022;28;20616;-74
2023/03/25 08:59:18;;;;;;;20.23;3.72;;;;;;;;;;5053344;28;20041;-74
2023/03/25 09:01:44;;;;;;;16.58;3.72;;;;;;;;;;5052675;28;20045;-74
2023/03/25 09:04:10;;;;;;;15.68;3.40;;;;;;;;;;5051576;28;20202;-74
2023/03/25 09:06:38;;;;;;;12.93;2.95;;;;;;;;;;5050693;28;20085;-76
2023/03/25 09:09:04;;;;;;;18.10;3.45;;;;;;;;;;5034117;28;20049;-73
2023/03/25 09:11:31;;;;;;;18.10;3.88;;;;;;;;;;5051758;28;20191;-74
2023/03/25 09:13:57;;;;;;;15.18;3.75;;;;;;;;;;5034999;28;20049;-74
2023/03/25 09:16:23;;;;;;;18.95;3.60;;;;;;;;;;5053126;28;20051;-74
2023/03/25 09:18:49;;;;;;;21.05;4.20;;;;;;;;;;5035371;28;20484;-73
2023/03/25 09:21:16;;;;;;;14.65;3.80;;;;;;;;;;5053148;28;20051;-74
2023/03/25 09:23:42;;;;;;;17.23;3.60;;;;;;;;;;5033355;28;20063;-74
2023/03/25 09:26:08;;;;;;;15.55;3.40;;;;;;;;;;5052992;28;20103;-74
2023/03/25 09:28:34;;;;;;;16.67;3.75;;;;;;;;;;5053110;28;20041;-74
2023/03/25 09:31:00;;;;;;;16.50;3.53;;;;;;;;;;5052854;28;20095;-74
2023/03/25 09:33:26;;;;;;;15.35;3.03;;;;;;;;;;5052860;28;20040;-74
2023/03/25 09:35:53;;;;;;;10.02;2.92;;;;;;;;;;5051216;28;20053;-74
2023/03/25 09:38:19;;;;;;;14.90;2.95;;;;;;;;;;5034492;28;20067;-74
2023/03/25 09:40:45;;;;;;;14.75;3.33;;;;;;;;;;5034196;28;20139;-74
2023/03/25 09:43:26;;;;;;;16.17;3.40;;;;;;;;;;5034552;28;20045;-74
2023/03/25 09:45:53;;;;;;;13.93;2.97;;;;;;;;;;5034491;28;20103;-73
2023/03/25 09:48:25;;;;;;;15.35;3.28;;;;;;;;;;5052493;28;20494;-74
2023/03/25 09:50:51;;;;;;;14.38;3.17;;;;;;;;;;5052066;28;20086;-75
2023/03/25 09:53:23;;;;;;;13.93;3.00;;;;;;;;;;5052551;28;20048;-74
2023/03/25 09:55:50;;;;;;;16.23;3.25;;;;;;;;;;5052257;28;20077;-75
2023/03/25 09:58:19;;;;;;;16.30;3.53;;;;;;;;;;5034298;28;20045;-74
2023/03/25 10:00:47;;;;;;;17.15;3.13;;;;;;;;;;5052117;28;20040;-74
2023/03/25 10:03:16;;;;;;;13.43;3.38;;;;;;;;;;5051987;28;20533;-75
2023/03/25 10:06:03;;;;;;;14.30;2.83;;;;;;;;;;5017853;28;20051;-74
2023/03/25 10:08:34;;;;;;;16.95;2.78;;;;;;;;;;5017932;28;20166;-75
2023/03/25 10:11:04;;;;;;;13.98;3.35;;;;;;;;;;5034175;28;20401;-74
2023/03/25 10:13:34;;;;;;;17.05;2.92;;;;;;;;;;5015758;28;20067;-74
2023/03/25 10:16:03;;;;;;;16.65;3.50;;;;;;;;;;5034011;28;20041;-74
2023/03/25 10:18:31;;;;;;;14.35;3.00;;;;;;;;;;5034343;28;20548;-75
2023/03/25 10:21:05;;;;;;;17.10;3.33;;;;;;;;;;5016934;28;20049;-74
2023/03/25 10:23:40;;;;;;;18.55;3.30;;;;;;;;;;5034072;28;20128;-74
2023/03/25 10:26:13;;;;;;;16.65;3.13;;;;;;;;;;5033954;28;20056;-74
2023/03/25 10:28:42;;;;;;;14.70;2.85;;;;;;;;;;5017507;28;20138;-74
2023/03/25 10:31:13;;;;;;;20.90;3.70;;;;;;;;;;5051715;28;20052;-75
2023/03/25 10:33:40;;;;;;;10.70;2.80;;;;;;;;;;5051855;28;20466;-74
2023/03/25 10:36:10;;;;;;;16.33;3.15;;;;;;;;;;5033918;28;20072;-74
2023/03/25 10:38:36;;;;;;;19.63;3.80;;;;;;;;;;5065233;28;20501;-74
2023/03/25 10:41:21;;;;;;;18.27;3.65;;;;;;;;;;5071287;28;20448;-75
2023/03/25 10:43:47;;;;;;;16.80;3.28;;;;;;;;;;5053560;28;20044;-75
2023/03/25 10:46:29;;;;;;;16.52;3.70;;;;;;;;;;5053708;28;20106;-74
2023/03/25 10:48:55;;;;;;;10.70;3.28;;;;;;;;;;5051974;28;20051;-75
2023/03/25 10:51:33;;;;;;;19.30;3.53;;;;;;;;;;5053447;28;20044;-74
2023/03/25 10:53:59;;;;;;;22.77;3.55;;;;;;;;;;5053730;28;20074;-74
2023/03/25 10:56:25;;;;;;;15.70;3.25;;;;;;;;;;5071446;28;20528;-74
2023/03/25 10:58:53;;;;;;;15.13;3.60;;;;;;;;;;5071436;28;20083;-74
2023/03/25 11:01:21;;;;;;;19.73;3.80;;;;;;;;;;5053694;28;20041;-74
2023/03/25 11:03:51;;;;;;;14.85;3.45;;;;;;;;;;5069964;28;20049;-74
2023/03/25 11:06:25;;;;;;;14.40;3.17;;;;;;;;;;5071312;28;20051;-74
2023/03/25 11:08:58;;;;;;;19.25;3.35;;;;;;;;;;5053636;28;20135;-75
2023/03/25 11:11:31;;;;;;;19.13;3.70;;;;;;;;;;5069502;28;20505;-74
2023/03/25 11:13:57;;;;;;;14.07;2.92;;;;;;;;;;5053128;28;20048;-74
2023/03/25 11:16:23;;;;;;;18.08;3.28;;;;;;;;;;5053251;28;20499;-74
2023/03/25 11:18:51;;;;;;;18.05;3.63;;;;;;;;;;5069994;28;20048;-75
2023/03/25 11:21:17;;;;;;;18.60;3.25;;;;;;;;;;5053241;28;20057;-74
2023/03/25 11:23:48;;;;;;;15.30;3.33;;;;;;;;;;5071444;28;20041;-74
2023/03/25 11:26:18;;;;;;;14.93;3.08;;;;;;;;;;5053521;28;20451;-74
2023/03/25 11:28:46;;;;;;;18.55;3.63;;;;;;;;;;5071431;28;20098;-74
2023/03/25 11:31:14;;;;;;;16.23;3.25;;;;;;;;;;5053204;28;20044;-74
2023/03/25 11:33:40;;;;;;;10.52;3.00;;;;;;;;;;5073348;28;20094;-74
2023/03/25 11:36:11;;;;;;;12.52;3.13;;;;;;;;;;5073683;28;20434;-75
2023/03/25 11:38:37;;;;;;;17.35;2.85;;;;;;;;;;5060713;28;20045;-75
2023/03/25 11:41:04;;;;;;;13.00;2.83;;;;;;;;;;5037344;28;20053;-74
2023/03/25 11:43:35;;;;;;;12.00;2.80;;;;;;;;;;5036730;28;20053;-74
2023/03/25 11:46:12;;;;;;;12.80;3.25;;;;;;;;;;5054749;28;20049;-74
2023/03/25 11:48:39;;;;;;;10.75;2.60;;;;;;;;;;5052939;28;20462;-74
2023/03/25 11:51:07;;;;;;;12.68;2.88;;;;;;;;;;5053528;28;20045;-75
2023/03/25 11:53:33;;;;;;;13.60;3.45;;;;;;;;;;5036347;28;20061;-74
2023/03/25 11:56:15;;;;;;;14.25;2.88;;;;;;;;;;5020516;28;20357;-74
2023/03/25 11:58:41;;;;;;;15.40;2.80;;;;;;;;;;5036730;28;20052;-74
2023/03/25 12:01:19;;;;;;;13.27;2.95;;;;;;;;;;5054454;28;20048;-75
2023/03/25 12:03:45;;;;;;;11.55;2.85;;;;;;;;;;5036548;28;20106;-74
2023/03/25 12:06:11;;;;;;;13.30;2.60;;;;;;;;;;5054280;28;20044;-74
2023/03/25 12:08:42;;;;;;;10.63;2.83;;;;;;;;;;5054545;28;20037;-75
2023/03/25 12:11:12;;;;;;;11.63;2.67;;;;;;;;;;5054179;28;20061;-75
2023/03/25 12:13:56;;;;;;;10.68;2.67;;;;;;;;;;5036371;28;20084;-75
2023/03/25 12:16:41;;;;;;;13.02;3.10;;;;;;;;;;5054331;28;20466;-74
2023/03/25 12:19:15;;;;;;;9.65;2.70;;;;;;;;;;5036079;28;20072;-75
2023/03/25 12:21:59;;;;;;;10.02;2.70;;;;;;;;;;5054238;28;20043;-75
2023/03/25 12:24:28;;;;;;;10.25;3.00;;;;;;;;;;5051926;28;20048;-75
2023/03/25 12:27:13;;;;;;;11.15;2.60;;;;;;;;;;5051911;28;20037;-74
2023/03/25 12:29:58;;;;;;;10.38;2.85;;;;;;;;;;5035356;28;20053;-75
2023/03/25 12:32:31;;;;;;;11.80;2.42;;;;;;;;;;5053822;28;20049;-75
2023/03/25 12:35:13;;;;;;;10.18;2.42;;;;;;;;;;5053846;28;20117;-75
2023/03/25 12:37:48;;;;;;;10.98;2.78;;;;;;;;;;5054053;28;20047;-74
2023/03/25 12:40:37;;;;;;;10.82;2.65;;;;;;;;;;5035940;28;20087;-75
2023/03/25 12:43:10;;;;;;;12.20;3.08;;;;;;;;;;5036017;28;20044;-75
2023/03/25 12:45:36;;;;;;;14.65;2.97;;;;;;;;;;5017520;28;20478;-75
2023/03/25 12:48:09;;;;;;;15.25;2.90;;;;;;;;;;5034922;28;20049;-75
2023/03/25 12:50:53;;;;;;;14.43;2.72;;;;;;;;;;5053432;28;20103;-75
2023/03/25 12:53:19;;;;;;;11.30;2.63;;;;;;;;;;5035268;28;20048;-75
2023/03/25 12:55:57;;;;;;;14.35;2.70;;;;;;;;;;5035521;28;20095;-75
2023/03/25 12:58:44;;;;;;;12.52;2.88;;;;;;;;;;5035697;28;20051;-75
2023/03/25 13:01:10;;;;;;;11.05;3.00;;;;;;;;;;5053355;28;20072;-75
2023/03/25 13:03:54;;;;;;;13.30;2.95;;;;;;;;;;5053407;28;20099;-75
2023/03/25 13:06:30;;;;;;;14.20;2.90;;;;;;;;;;5035465;28;20068;-75
2023/03/25 13:09:05;;;;;;;13.73;2.90;;;;;;;;;;5035299;28;20045;-75
2023/03/25 13:11:51;;;;;;;14.38;2.90;;;;;;;;;;5053157;28;20102;-74
2023/03/25 13:14:23;;;;;;;14.57;3.00;;;;;;;;;;5016030;28;20095;-75
2023/03/25 13:16:52;;;;;;;10.00;2.85;;;;;;;;;;5053595;28;20045;-74
2023/03/25 13:19:24;;;;;;;14.80;3.17;;;;;;;;;;5052950;28;20051;-74
2023/03/25 13:21:52;;;;;;;9.93;2.58;;;;;;;;;;5052421;28;20095;-74
2023/03/25 13:24:23;;;;;;;11.52;2.97;;;;;;;;;;5032388;28;20489;-74
2023/03/25 13:26:50;;;;;;;11.63;2.70;;;;;;;;;;5051242;28;20056;-74
2023/03/25 13:29:38;;;;;;;11.60;2.97;;;;;;;;;;5050087;28;20045;-74
2023/03/25 13:32:08;;;;;;;11.68;2.65;;;;;;;;;;5035097;28;20037;-75
2023/03/25 13:34:49;;;;;;;11.45;2.60;;;;;;;;;;5034680;28;20071;-74
2023/03/25 13:37:21;;;;;;;9.50;2.80;;;;;;;;;;5052850;28;20106;-75
2023/03/25 13:40:12;;;;;;;13.98;2.80;;;;;;;;;;5052549;28;20048;-75
2023/03/25 13:42:57;;;;;;;9.95;2.40;;;;;;;;;;5034764;28;20128;-74
2023/03/25 13:45:24;;;;;;;8.18;2.55;;;;;;;;;;5050543;28;20045;-74
2023/03/25 13:47:56;;;;;;;12.07;2.30;;;;;;;;;;5034295;28;20053;-74
2023/03/25 13:50:27;;;;;;;13.45;2.75;;;;;;;;;;5052285;28;20037;-74
2023/03/25 13:52:59;;;;;;;11.75;2.60;;;;;;;;;;5052349;28;20427;-74
2023/03/25 13:55:29;;;;;;;11.02;2.92;;;;;;;;;;5052380;28;20456;-74
2023/03/25 13:58:02;;;;;;;11.07;2.67;;;;;;;;;;5034360;28;20041;-74
2023/03/25 14:00:38;;;;;;;9.05;2.58;;;;;;;;;;5052130;28;20084;-74
2023/03/25 14:03:15;;;;;;;9.00;2.78;;;;;;;;;;5034280;28;20037;-74
2023/03/25 14:05:44;;;;;;;11.43;2.90;;;;;;;;;;5017746;28;20049;-74
2023/03/25 14:08:42;;;;;;;13.50;2.42;;;;;;;;;;5052089;28;20072;-74
2023/03/25 14:11:11;;;;;;;8.18;2.28;;;;;;;;;;5007864;28;20053;-74
2023/03/25 14:13:41;;;;;;;7.65;2.35;;;;;;;;;;5033976;28;20061;-74
2023/03/25 14:16:09;;;;;;;9.13;1.90;;;;;;;;;;5052299;28;20072;-74
2023/03/25 14:18:43;;;;;;;5.32;1.80;;;;;;;;;;5052216;28;20116;-74
2023/03/25 14:21:18;;;;;;;5.25;1.88;;;;;;;;;;5052071;28;20041;-74
2023/03/25 14:23:44;;;;;;;6.90;2.30;;;;;;;;;;5034170;28;20045;-74
2023/03/25 14:26:10;;;;;;;9.25;2.50;;;;;;;;;;5052146;28;20049;-74
2023/03/25 14:28:42;;;;;;;9.25;2.80;;;;;;;;;;5034277;28;20073;-74
2023/03/25 14:31:11;;;;;;;9.85;2.47;;;;;;;;;;5052034;28;20075;-74
2023/03/25 14:33:56;;;;;;;8.80;2.95;;;;;;;;;;5033798;28;20049;-74
2023/03/25 14:36:28;;;;;;;12.52;2.65;;;;;;;;;;5051875;28;20129;-74
2023/03/25 14:38:55;;;;;;;11.40;2.72;;;;;;;;;;5029470;28;20045;-74
2023/03/25 14:41:53;;;;;;;7.53;2.42;;;;;;;;;;5051770;28;20043;-74
2023/03/25 14:44:20;;;;;;;13.20;2.80;;;;;;;;;;5033555;28;20053;-74
2023/03/25 14:46:46;;;;;;;13.68;2.70;;;;;;;;;;5033859;28;20136;-74